Time;durP1;ratioP1;P1;durP2;ratioP2;P2;SDS_P1;SDS_P2;PMS_P1;PMS_P2;Temp;Humidity;BMP_temperature;BMP_pressure;BME280_temperature;BME280_humidity;BME280_pressure;Samples;Min_cycle;Max_cycle;Signal;HPM_P1;HPM_P2
2021/01/28 02:58:45;;;;;;;;;;;;;;;;;;;;;
2021/01/28 03:03:59;;;;;;;18.40;10.63;;;8.00;99.90;;;;;;4329773;24;20317;-96
2021/01/28 03:06:26;;;;;;;17.83;10.83;;;8.20;99.90;;;;;;3948114;30;20303;-96
2021/01/28 03:28:11;;;;;;;14.93;7.83;;;7.90;99.90;;;;;;3942329;30;20249;-95
2021/01/28 03:30:33;;;;;;;15.30;8.00;;;7.90;99.90;;;;;;3929250;30;20211;-96
2021/01/28 03:32:38;;;;;;;11.77;7.47;;;7.90;99.90;;;;;;3916003;30;20227;-95
2021/01/28 03:34:55;;;;;;;10.20;7.00;;;7.80;99.90;;;;;;3917302;30;20219;-96
2021/01/28 03:37:10;;;;;;;12.30;7.43;;;7.90;99.90;;;;;;3918050;30;20195;-95
2021/01/28 03:42:05;;;;;;;12.40;7.23;;;8.10;99.90;;;;;;4586368;24;20245;-96
2021/01/28 03:50:38;;;;;;;10.63;6.63;;;8.10;99.90;;;;;;3869430;30;20257;-96
2021/01/28 03:53:18;;;;;;;10.53;6.80;;;8.20;99.90;;;;;;3912372;30;20203;-96
2021/01/28 03:56:09;;;;;;;9.20;6.33;;;8.20;99.90;;;;;;4255917;24;20230;-96
2021/01/28 03:58:16;;;;;;;9.87;6.60;;;8.40;99.90;;;;;;3931321;30;20224;-94
2021/01/28 04:00:28;;;;;;;14.47;7.13;;;8.60;99.90;;;;;;3934910;24;20224;-94
2021/01/28 04:02:51;;;;;;;11.87;6.70;;;8.80;99.90;;;;;;3935840;30;20178;-94
2021/01/28 04:05:19;;;;;;;13.37;7.07;;;8.80;99.90;;;;;;3953191;30;20219;-92
2021/01/28 04:07:47;;;;;;;9.83;6.40;;;9.00;99.90;;;;;;3940084;30;20232;-94
2021/01/28 04:10:05;;;;;;;9.20;6.50;;;8.50;99.90;;;;;;3924234;30;20166;-94
2021/01/28 04:12:11;;;;;;;9.47;6.57;;;8.50;99.90;;;;;;3938415;30;20222;-93
2021/01/28 04:14:36;;;;;;;10.17;6.70;;;8.50;99.90;;;;;;3939585;30;20210;-94
2021/01/28 04:16:38;;;;;;;9.93;6.23;;;8.40;99.90;;;;;;3935441;30;20220;-94
2021/01/28 04:18:47;;;;;;;11.37;6.20;;;8.20;99.90;;;;;;3936629;30;20182;-94
2021/01/28 04:21:16;;;;;;;10.03;6.20;;;8.10;99.90;;;;;;3934281;30;20647;-94
2021/01/28 04:26:28;;;;;;;9.27;6.03;;;8.20;99.90;;;;;;3938479;30;20186;-95
2021/01/28 04:28:34;;;;;;;9.57;6.63;;;8.30;99.90;;;;;;3939827;30;20210;-95
2021/01/28 04:31:15;;;;;;;11.70;5.97;;;8.20;99.90;;;;;;3984540;24;20334;-94
2021/01/28 04:33:32;;;;;;;9.00;6.13;;;8.30;99.90;;;;;;3909578;30;20180;-93
2021/01/28 04:35:56;;;;;;;9.83;6.20;;;8.30;99.90;;;;;;3880890;30;20185;-93
2021/01/28 04:37:59;;;;;;;8.63;6.17;;;8.40;99.90;;;;;;3892283;30;20202;-94
2021/01/28 04:40:49;;;;;;;9.33;6.20;;;8.30;99.90;;;;;;3907807;30;20175;-94
2021/01/28 04:42:52;;;;;;;10.67;6.40;;;8.50;99.90;;;;;;3896274;30;20181;-93
2021/01/28 04:44:59;;;;;;;10.30;6.20;;;8.50;99.90;;;;;;3905701;30;20215;-93
2021/01/28 04:47:02;;;;;;;8.67;5.70;;;8.50;99.90;;;;;;4169118;24;20297;-94
2021/01/28 04:49:26;;;;;;;10.23;6.13;;;8.40;99.90;;;;;;3936972;30;20246;-95
2021/01/28 04:51:59;;;;;;;12.60;5.97;;;8.40;99.90;;;;;;3937649;30;20218;-94
2021/01/28 04:54:47;;;;;;;;;;;;;;;;;;;;;
2021/01/28 04:57:38;;;;;;;7.63;5.47;;;8.00;99.90;;;;;;3949579;30;20177;-93
2021/01/28 05:00:35;;;;;;;7.37;5.80;;;8.00;99.90;;;;;;3928736;30;20648;-94
2021/01/28 05:03:34;;;;;;;7.97;5.67;;;8.20;99.90;;;;;;3934454;30;20223;-94
2021/01/28 05:06:02;;;;;;;8.33;5.73;;;8.20;99.90;;;;;;3935483;30;20190;-94
2021/01/28 05:10:36;;;;;;;9.20;6.00;;;8.20;99.90;;;;;;4357008;24;20760;-93
2021/01/28 05:13:28;;;;;;;11.27;5.73;;;8.00;99.90;;;;;;3921269;30;20218;-94
2021/01/28 05:16:33;;;;;;;8.33;5.23;;;8.10;99.90;;;;;;3893367;30;20689;-94
2021/01/28 05:26:50;;;;;;;5.60;4.20;;;8.00;99.90;;;;;;4811390;24;20210;-94
2021/01/28 05:32:16;;;;;;;7.23;4.67;;;8.10;99.90;;;;;;4587463;24;20249;-94
2021/01/28 05:37:49;;;;;;;7.83;4.20;;;8.00;99.90;;;;;;4262257;24;20280;-94
2021/01/28 06:04:33;;;;;;;7.83;3.10;;;8.10;99.90;;;;;;3921301;30;20258;-94
2021/01/28 06:07:33;;;;;;;7.63;4.00;;;7.90;99.90;;;;;;3913615;30;20212;-94
2021/01/28 06:10:00;;;;;;;4.77;2.97;;;8.10;99.90;;;;;;3867494;30;20206;-94
2021/01/28 06:12:52;;;;;;;6.70;3.77;;;8.00;99.90;;;;;;3922672;30;20214;-93
2021/01/28 06:15:13;;;;;;;5.13;3.73;;;7.90;99.90;;;;;;3919823;30;20203;-93
2021/01/28 06:17:45;;;;;;;7.23;3.83;;;7.90;99.90;;;;;;3905351;30;20196;-93
2021/01/28 06:20:41;;;;;;;6.27;3.83;;;7.90;99.90;;;;;;3919565;30;20225;-94
2021/01/28 06:23:34;;;;;;;8.20;4.10;;;8.10;99.90;;;;;;3920266;30;20198;-94
2021/01/28 06:26:14;;;;;;;6.90;3.53;;;8.10;99.90;;;;;;3920618;30;20191;-93
2021/01/28 06:29:11;;;;;;;5.30;3.03;;;7.90;99.90;;;;;;3904261;30;20168;-94
2021/01/28 06:31:30;;;;;;;4.97;3.83;;;7.90;99.90;;;;;;3923234;30;20687;-93
2021/01/28 06:34:07;;;;;;;5.90;3.83;;;8.00;99.90;;;;;;3922758;30;20174;-94
2021/01/28 06:37:24;;;;;;;6.07;3.57;;;8.00;99.90;;;;;;3915771;30;20191;-92
2021/01/28 06:40:12;;;;;;;6.10;3.70;;;8.00;99.90;;;;;;3910966;30;20746;-93
2021/01/28 06:43:14;;;;;;;6.03;3.33;;;8.10;99.90;;;;;;3920879;30;20649;-94
2021/01/28 06:46:05;;;;;;;4.83;3.53;;;8.20;99.90;;;;;;3876943;30;20196;-93
2021/01/28 06:48:24;;;;;;;4.73;3.50;;;8.20;99.90;;;;;;3919189;30;20174;-94
2021/01/28 06:50:55;;;;;;;6.23;3.53;;;8.30;99.90;;;;;;3919802;30;20198;-94
2021/01/28 06:53:27;;;;;;;5.43;3.40;;;8.20;99.90;;;;;;4020100;24;20213;-93
2021/01/28 06:56:36;;;;;;;7.87;3.57;;;8.10;99.90;;;;;;3935854;30;20613;-93
2021/01/28 06:59:08;;;;;;;4.63;3.60;;;8.20;99.90;;;;;;3951312;30;20201;-93
2021/01/28 07:03:44;;;;;;;3.50;3.20;;;8.30;99.90;;;;;;3927144;30;20279;-94
2021/01/28 07:06:27;;;;;;;2.87;2.07;;;8.40;99.90;;;;;;3913214;30;20187;-93
2021/01/28 07:08:52;;;;;;;3.67;2.50;;;8.30;99.90;;;;;;3900419;30;20184;-94
2021/01/28 07:11:27;;;;;;;9.33;3.17;;;8.40;99.90;;;;;;3898041;30;20319;-93
2021/01/28 07:13:50;;;;;;;3.97;3.03;;;8.40;99.90;;;;;;3934814;24;20243;-94
2021/01/28 07:16:30;;;;;;;5.80;4.07;;;8.60;99.90;;;;;;3931057;30;20334;-93
2021/01/28 07:18:45;;;;;;;12.97;6.20;;;8.60;99.90;;;;;;3980094;24;20309;-95
2021/01/28 07:21:25;;;;;;;7.60;4.33;;;8.70;99.90;;;;;;4012767;24;20235;-93
2021/01/28 07:23:40;;;;;;;5.00;3.40;;;8.80;99.90;;;;;;3971050;30;20193;-94
2021/01/28 07:25:47;;;;;;;5.43;3.93;;;8.70;99.90;;;;;;3957235;30;20169;-93
2021/01/28 07:28:18;;;;;;;4.47;3.87;;;8.80;99.90;;;;;;3957032;30;20181;-93
2021/01/28 07:31:12;;;;;;;5.57;3.40;;;8.90;99.90;;;;;;4301821;24;20271;-96
2021/01/28 07:34:08;;;;;;;3.57;2.80;;;9.00;99.90;;;;;;4360562;24;20243;-96
2021/01/28 07:42:33;;;;;;;4.53;3.00;;;9.00;99.90;;;;;;4344892;24;20248;-94
2021/01/28 08:06:05;;;;;;;21.10;11.53;;;9.60;99.90;;;;;;4173528;24;20260;-95
2021/01/28 08:09:25;;;;;;;19.00;13.27;;;9.70;99.90;;;;;;3967928;30;20173;-94
2021/01/28 08:25:56;;;;;;;4.63;2.67;;;10.20;99.90;;;;;;4342224;24;20228;-94
2021/01/28 08:28:36;;;;;;;5.43;2.93;;;10.20;99.90;;;;;;4331717;24;20272;-96
2021/01/28 08:36:30;;;;;;;;;;;;;;;;;;;;;
2021/01/28 08:42:03;;;;;;;3.80;3.30;;;10.50;99.90;;;;;;3951538;30;20225;-95
2021/01/28 08:52:13;;;;;;;4.23;3.00;;;10.50;99.90;;;;;;4383511;24;20234;31
2021/01/28 08:57:07;;;;;;;3.50;2.20;;;10.60;99.90;;;;;;4612142;24;20250;31
2021/01/28 09:00:25;;;;;;;5.37;2.70;;;10.60;99.90;;;;;;4006036;24;20233;-96
2021/01/28 09:03:19;;;;;;;4.53;3.13;;;10.50;99.90;;;;;;4245625;24;20208;-94
2021/01/28 09:11:33;;;;;;;61.77;38.90;;;10.60;99.90;;;;;;3938760;30;20262;-95
2021/01/28 09:16:21;;;;;;;4.15;2.70;;;10.70;99.90;;;;;;4185471;24;20264;-94
2021/01/28 09:19:24;;;;;;;10.65;8.68;;;10.70;99.90;;;;;;4076076;24;20254;-94
2021/01/28 09:22:39;;;;;;;4.80;3.43;;;10.80;99.90;;;;;;4035994;24;20272;-95
2021/01/28 09:25:10;;;;;;;4.00;3.20;;;10.90;99.90;;;;;;3929893;24;20224;-95
2021/01/28 09:35:43;;;;;;;3.83;3.05;;;11.00;99.90;;;;;;4003783;24;20267;-94
2021/01/28 09:38:36;;;;;;;10.82;8.05;;;11.10;99.90;;;;;;4151216;24;20270;-95
2021/01/28 09:42:03;;;;;;;22.45;16.35;;;11.20;99.90;;;;;;3925398;30;20202;-95
2021/01/28 09:50:14;;;;;;;4.20;1.83;;;11.30;99.90;;;;;;4117907;24;20234;-95
2021/01/28 09:53:31;;;;;;;3.73;2.87;;;11.10;99.90;;;;;;3946950;24;20238;-95
2021/01/28 09:58:47;;;;;;;8.40;6.10;;;10.90;99.90;;;;;;4022749;24;20247;-95
2021/01/28 10:00:55;;;;;;;6.33;5.23;;;11.00;99.90;;;;;;3966556;29;20192;-95
2021/01/28 10:12:44;;;;;;;6.68;3.85;;;11.00;99.90;;;;;;4246659;24;20244;31
2021/01/28 10:15:31;;;;;;;8.88;5.00;;;11.10;99.90;;;;;;3953392;24;20270;-94
2021/01/28 10:18:01;;;;;;;3.80;3.30;;;11.30;99.90;;;;;;3965060;30;20177;-95
2021/01/28 10:22:24;;;;;;;9.15;4.05;;;11.40;99.90;;;;;;4205437;24;20254;-95
2021/01/28 10:24:45;;;;;;;4.70;3.47;;;11.30;99.90;;;;;;4015662;24;20255;-94
2021/01/28 10:26:50;;;;;;;5.07;3.83;;;11.40;99.90;;;;;;3935728;30;20183;-94
2021/01/28 10:29:17;;;;;;;5.68;3.92;;;11.50;99.90;;;;;;4253360;24;20229;-94
2021/01/28 10:31:35;;;;;;;7.78;3.47;;;11.50;99.90;;;;;;3969026;24;20253;-96
2021/01/28 10:33:51;;;;;;;7.80;3.78;;;11.40;99.90;;;;;;3964195;24;20228;-95
2021/01/28 10:36:35;;;;;;;6.70;4.00;;;11.50;99.90;;;;;;3950669;30;20284;-94
2021/01/28 10:39:10;;;;;;;8.93;3.70;;;11.50;99.90;;;;;;3950893;30;20197;-95
2021/01/28 10:41:52;;;;;;;6.03;3.10;;;11.60;99.90;;;;;;4155351;24;20249;-93
2021/01/28 10:52:52;;;;;;;6.93;2.75;;;11.70;99.90;;;;;;4261701;24;20261;-95
2021/01/28 10:55:09;;;;;;;7.53;2.63;;;11.80;99.90;;;;;;3936032;30;20230;-95
2021/01/28 10:59:42;;;;;;;3.85;2.45;;;11.70;99.90;;;;;;3961495;24;20754;-95
2021/01/28 11:02:21;;;;;;;5.43;2.65;;;11.80;99.90;;;;;;4048828;24;20257;-94
2021/01/28 11:04:47;;;;;;;7.30;3.35;;;11.80;99.90;;;;;;3962132;24;20233;-96
2021/01/28 11:07:22;;;;;;;6.57;2.67;;;12.00;99.90;;;;;;3959190;24;20250;-94
2021/01/28 11:09:33;;;;;;;3.60;2.17;;;11.80;99.90;;;;;;4052669;24;20291;-96
2021/01/28 11:12:00;;;;;;;6.25;3.00;;;11.80;99.90;;;;;;4229403;24;20367;-95
2021/01/28 11:16:36;;;;;;;8.05;3.08;;;11.90;99.90;;;;;;4205212;24;20279;-94
2021/01/28 11:21:41;;;;;;;7.10;2.30;;;12.10;99.90;;;;;;4218838;24;20253;-95
2021/01/28 11:24:13;;;;;;;12.20;2.15;;;12.20;99.90;;;;;;3985460;24;20225;-95
2021/01/28 11:26:49;;;;;;;7.43;2.00;;;12.20;99.90;;;;;;4150774;24;20205;-95
2021/01/28 11:31:59;;;;;;;5.13;1.95;;;12.10;99.90;;;;;;4398592;24;20207;-95
2021/01/28 11:36:45;;;;;;;8.45;2.50;;;12.10;99.90;;;;;;4011993;24;20260;-95
2021/01/28 11:44:08;;;;;;;10.15;4.10;;;12.20;99.90;;;;;;4295714;24;20254;-95
2021/01/28 11:46:48;;;;;;;9.63;3.33;;;12.30;99.90;;;;;;3974494;24;20222;-96
2021/01/28 11:49:49;;;;;;;7.53;2.75;;;12.30;99.90;;;;;;3968119;30;20194;-94
2021/01/28 11:51:59;;;;;;;10.73;3.08;;;12.40;99.90;;;;;;4009928;24;20241;-93
2021/01/28 11:54:06;;;;;;;3.45;1.70;;;12.40;99.90;;;;;;3932887;30;20198;-93
2021/01/28 11:56:07;;;;;;;7.97;2.40;;;12.40;99.90;;;;;;3921475;30;20340;-94
2021/01/28 11:58:41;;;;;;;6.10;2.63;;;12.30;99.90;;;;;;3950093;30;20623;-94
2021/01/28 12:00:52;;;;;;;7.03;2.60;;;12.40;99.90;;;;;;3937087;30;20178;-93
2021/01/28 12:03:13;;;;;;;6.13;3.15;;;12.40;99.90;;;;;;3919795;30;20199;-96
2021/01/28 12:05:30;;;;;;;;;;;;;;;;;;;;;
2021/01/28 12:07:40;;;;;;;9.35;3.50;;;12.20;99.90;;;;;;3936670;30;20201;-93
2021/01/28 12:09:46;;;;;;;6.20;3.40;;;12.30;99.90;;;;;;3950548;30;20665;-94
2021/01/28 12:11:48;;;;;;;6.95;3.85;;;12.30;99.90;;;;;;3934478;30;20301;-95
2021/01/28 12:13:49;;;;;;;6.55;2.92;;;12.40;99.90;;;;;;3935100;30;20186;-94
2021/01/28 12:15:58;;;;;;;3.72;1.42;;;12.30;99.90;;;;;;3950155;30;20192;-93
2021/01/28 12:17:59;;;;;;;6.68;2.72;;;12.20;99.90;;;;;;3936678;30;20202;-93
2021/01/28 12:20:10;;;;;;;5.93;2.80;;;12.20;99.90;;;;;;3935242;30;20177;-94
2021/01/28 12:22:26;;;;;;;5.93;2.15;;;12.20;99.90;;;;;;3950540;30;20276;-94
2021/01/28 12:24:29;;;;;;;3.80;2.33;;;12.20;99.90;;;;;;3950058;30;20539;-93
2021/01/28 12:26:32;;;;;;;6.13;2.00;;;12.30;99.90;;;;;;3920283;30;20273;-94
2021/01/28 12:28:34;;;;;;;3.67;2.10;;;12.30;99.90;;;;;;3936113;30;20190;-93
2021/01/28 12:30:46;;;;;;;7.03;2.20;;;12.40;99.90;;;;;;3935835;30;20183;-94
2021/01/28 12:32:48;;;;;;;4.35;1.48;;;12.50;99.90;;;;;;3921185;30;20317;-94
2021/01/28 12:34:53;;;;;;;5.60;1.58;;;12.60;99.90;;;;;;3935088;30;20209;-94
2021/01/28 12:37:03;;;;;;;7.13;1.35;;;12.60;99.90;;;;;;3937169;30;20179;-93
2021/01/28 12:39:04;;;;;;;3.03;1.05;;;12.60;99.90;;;;;;3935135;30;20801;-95
2021/01/28 12:41:08;;;;;;;2.40;1.30;;;12.40;99.90;;;;;;3934375;30;20186;-93
2021/01/28 12:43:09;;;;;;;3.28;1.05;;;12.50;99.90;;;;;;3935254;30;20672;-92
2021/01/28 12:45:11;;;;;;;6.10;1.05;;;12.50;99.90;;;;;;3935529;30;20213;-94
2021/01/28 12:47:14;;;;;;;2.38;0.95;;;12.60;99.90;;;;;;3920795;30;20183;-93
2021/01/28 12:49:17;;;;;;;3.22;0.98;;;12.70;99.90;;;;;;3935482;30;20186;-92
2021/01/28 12:51:22;;;;;;;6.38;1.15;;;12.80;99.90;;;;;;3935008;30;20261;-94
2021/01/28 12:53:28;;;;;;;5.28;0.90;;;12.60;99.90;;;;;;3934817;30;20328;-95
2021/01/28 12:55:34;;;;;;;3.80;0.85;;;12.50;99.90;;;;;;3934860;30;20206;-95
2021/01/28 12:57:41;;;;;;;3.58;0.88;;;12.50;99.90;;;;;;3921039;30;20219;-94
2021/01/28 12:59:50;;;;;;;1.75;0.88;;;12.40;99.90;;;;;;3949905;30;20730;-95
2021/01/28 13:02:10;;;;;;;3.88;0.95;;;12.30;99.90;;;;;;3951355;30;20190;-94
2021/01/28 13:04:37;;;;;;;4.75;0.90;;;12.40;99.90;;;;;;3935967;30;20281;-94
2021/01/28 13:07:40;;;;;;;3.65;1.10;;;12.60;99.90;;;;;;3953112;30;20206;-95
2021/01/28 13:10:03;;;;;;;;;;;;;;;;;;;;;
2021/01/28 13:13:24;;;;;;;;;;;;;;;;;;;;;
2021/01/28 13:15:40;;;;;;;5.55;1.50;;;12.40;99.90;;;;;;4153745;24;20626;-95
2021/01/28 13:20:32;;;;;;;4.53;1.08;;;12.30;99.90;;;;;;4253770;24;20683;-95
2021/01/28 13:23:09;;;;;;;5.95;1.48;;;12.40;99.90;;;;;;3909479;30;20771;-92
2021/01/28 13:31:43;;;;;;;;;;;;;;;;;;;;;
2021/01/28 13:34:33;;;;;;;10.40;2.13;;;12.20;99.90;;;;;;3938722;30;20202;-95
2021/01/28 13:37:36;;;;;;;;;;;;;;;;;;;;;
2021/01/28 13:57:01;;;;;;;11.70;2.35;;;11.90;99.90;;;;;;3946479;30;20230;-95
2021/01/28 13:59:17;;;;;;;14.45;2.15;;;12.10;99.90;;;;;;3929923;30;20305;-95
2021/01/28 14:01:47;;;;;;;8.52;1.92;;;12.30;99.90;;;;;;3923752;30;20191;-94
2021/01/28 14:04:30;;;;;;;10.13;1.75;;;12.20;99.90;;;;;;3935190;30;20266;-95
2021/01/28 14:06:46;;;;;;;10.52;2.30;;;12.20;99.90;;;;;;3908249;30;20262;-94
2021/01/28 14:08:53;;;;;;;17.30;3.47;;;12.10;99.90;;;;;;3909494;30;20179;-94
2021/01/28 14:11:02;;;;;;;8.40;1.85;;;12.20;99.90;;;;;;3915796;30;20186;-95
2021/01/28 14:13:56;;;;;;;;;;;;;;;;;;;;;
2021/01/28 14:19:51;;;;;;;11.40;2.03;;;12.00;99.90;;;;;;3936876;30;20656;-94
2021/01/28 14:23:01;;;;;;;;;;;;;;;;;;;;;
2021/01/28 14:25:30;;;;;;;;;;;;;;;;;;;;;
2021/01/28 14:27:38;;;;;;;15.27;1.77;;;11.90;99.90;;;;;;3925135;30;20198;-95
2021/01/28 14:29:56;;;;;;;16.45;1.90;;;12.00;99.90;;;;;;3935273;30;20183;-94
2021/01/28 14:32:05;;;;;;;12.20;1.98;;;11.90;99.90;;;;;;3921016;30;20283;-93
2021/01/28 14:34:11;;;;;;;11.80;2.17;;;11.90;99.90;;;;;;3920866;30;20218;-93
2021/01/28 14:36:34;;;;;;;11.25;1.88;;;12.00;99.90;;;;;;3928019;24;20199;-95
2021/01/28 14:38:58;;;;;;;9.32;2.10;;;12.00;99.90;;;;;;3971746;29;20626;-95
2021/01/28 14:41:13;;;;;;;17.02;2.50;;;12.10;99.90;;;;;;3957116;30;20253;-94
2021/01/28 14:43:42;;;;;;;;;;;;;;;;;;;;;
2021/01/28 14:45:56;;;;;;;23.98;5.40;;;12.20;99.90;;;;;;4108733;24;20693;-95
2021/01/28 14:48:41;;;;;;;25.08;5.07;;;12.20;99.90;;;;;;3914882;30;20712;-95
2021/01/28 14:51:18;;;;;;;17.30;2.85;;;12.30;99.90;;;;;;3869476;30;20208;-95
2021/01/28 14:56:09;;;;;;;19.13;3.35;;;12.30;99.90;;;;;;4053467;24;20249;-95
2021/01/28 14:58:24;;;;;;;20.50;3.15;;;12.20;99.90;;;;;;3932651;30;20186;-94
2021/01/28 15:11:21;;;;;;;13.95;2.95;;;12.40;99.90;;;;;;3956504;30;20186;-94
2021/01/28 15:14:06;;;;;;;18.25;3.10;;;12.40;99.90;;;;;;3924092;30;20532;-94
2021/01/28 15:16:48;;;;;;;18.25;2.90;;;12.30;99.90;;;;;;3935056;30;20197;-95
2021/01/28 15:19:43;;;;;;;18.42;3.42;;;12.30;99.90;;;;;;3945828;30;20198;-95
2021/01/28 15:22:23;;;;;;;16.95;2.47;;;12.10;99.90;;;;;;3944007;30;20178;-94
2021/01/28 15:24:44;;;;;;;14.63;2.67;;;12.10;99.90;;;;;;4111810;24;20259;-94
2021/01/28 15:53:06;;;;;;;;;;;;;;;;;;;;;
2021/01/28 18:01:06;;;;;;;19.27;3.70;;;11.70;99.90;;;;;;3587579;24;20536;31
2021/01/28 18:06:01;;;;;;;25.77;4.32;;;11.70;99.90;;;;;;3928986;24;20769;-94
2021/01/28 18:08:36;;;;;;;19.30;4.05;;;11.70;99.90;;;;;;3907618;30;20172;-94
2021/01/28 18:10:37;;;;;;;27.38;4.75;;;11.70;99.90;;;;;;3906407;30;20569;-95
2021/01/28 18:12:55;;;;;;;30.58;5.30;;;11.60;99.90;;;;;;3905724;30;20314;-95
2021/01/28 18:15:18;;;;;;;21.40;3.95;;;11.60;99.90;;;;;;3910264;30;20436;-94
2021/01/28 18:17:48;;;;;;;27.70;5.13;;;11.50;99.90;;;;;;3973903;24;20186;-96
2021/01/28 18:19:51;;;;;;;33.03;4.65;;;11.70;99.90;;;;;;3948908;30;20316;-94
2021/01/28 18:22:01;;;;;;;27.08;4.72;;;11.70;99.90;;;;;;3949194;30;20222;-94
2021/01/28 18:24:02;;;;;;;23.77;4.60;;;11.70;99.90;;;;;;3935052;30;20205;-94
2021/01/28 18:26:21;;;;;;;;;;;;;;;;;;;;;
2021/01/28 18:34:38;;;;;;;44.25;15.40;;;11.30;99.90;;;;;;3922756;30;20772;-95
2021/01/28 18:36:53;;;;;;;35.05;7.40;;;11.30;99.90;;;;;;3906580;30;20359;-95
2021/01/28 18:39:29;;;;;;;84.85;33.10;;;11.30;99.90;;;;;;3934663;30;20571;-94
2021/01/28 18:42:02;;;;;;;113.00;40.47;;;11.10;99.90;;;;;;3945351;30;20678;-94
2021/01/28 18:44:15;;;;;;;101.38;39.38;;;11.00;99.90;;;;;;3933967;30;20199;-94
2021/01/28 18:49:27;;;;;;;152.57;79.72;;;11.00;99.90;;;;;;3931756;30;20217;-95
2021/01/28 18:52:11;;;;;;;;;;;;;;;;;;;;;
2021/01/28 18:54:38;;;;;;;54.75;23.00;;;11.00;99.90;;;;;;3950165;30;20209;-94
2021/01/28 18:57:39;;;;;;;37.97;10.48;;;10.80;99.90;;;;;;3936479;30;20195;-95
2021/01/28 19:00:04;;;;;;;39.27;8.07;;;10.80;99.90;;;;;;3918928;30;20202;-94
2021/01/28 19:02:26;;;;;;;37.45;12.65;;;10.80;99.90;;;;;;3933996;30;20273;-94
2021/01/28 19:05:03;;;;;;;40.58;9.45;;;10.70;99.90;;;;;;3950146;30;20201;-94
2021/01/28 19:07:40;;;;;;;38.88;11.30;;;10.80;99.90;;;;;;3947316;30;20642;-95
2021/01/28 19:10:06;;;;;;;;;;;;;;;;;;;;;
2021/01/28 19:13:20;;;;;;;35.03;6.72;;;10.80;99.90;;;;;;3947466;30;20225;-93
2021/01/28 19:16:15;;;;;;;;;;;;;;;;;;;;;
2021/01/28 19:22:27;;;;;;;39.72;6.65;;;10.70;99.90;;;;;;3919595;30;20195;-96
2021/01/28 19:25:11;;;;;;;43.15;16.05;;;10.70;99.90;;;;;;3909509;30;20290;-95
2021/01/28 19:31:52;;;;;;;29.35;5.28;;;10.80;99.90;;;;;;3919066;30;20256;-96
2021/01/28 19:34:25;;;;;;;36.10;5.85;;;10.90;99.90;;;;;;3907967;30;20219;-94
2021/01/28 19:38:00;;;;;;;;;;;;;;;;;;;;;
2021/01/28 19:40:38;;;;;;;26.48;5.47;;;10.80;99.90;;;;;;3878198;30;20277;-94
2021/01/28 19:43:13;;;;;;;36.53;5.35;;;10.70;99.90;;;;;;3879609;30;20191;-94
2021/01/28 19:46:15;;;;;;;26.30;5.27;;;10.70;99.90;;;;;;3877965;30;20259;-94
2021/01/28 19:48:50;;;;;;;;;;;;;;;;;;;;;
2021/01/28 19:51:59;;;;;;;25.98;5.20;;;10.70;99.90;;;;;;3905719;30;20187;-95
2021/01/28 19:54:24;;;;;;;29.85;5.30;;;10.90;99.90;;;;;;3916942;30;20708;-94
2021/01/28 19:56:52;;;;;;;24.60;4.93;;;11.00;99.90;;;;;;3907780;30;20186;-94
2021/01/28 20:02:50;;;;;;;26.88;4.47;;;11.10;99.90;;;;;;3892611;30;20593;-94
2021/01/28 20:05:38;;;;;;;;;;;;;;;;;;;;;
2021/01/28 20:08:27;;;;;;;28.83;5.05;;;11.00;99.90;;;;;;3906888;30;20290;-95
2021/01/28 20:11:09;;;;;;;;;;;;;;;;;;;;;
2021/01/28 20:13:23;;;;;;;27.48;5.05;;;10.70;99.90;;;;;;3906424;30;20188;-94
2021/01/28 20:15:48;;;;;;;26.73;4.70;;;10.70;99.90;;;;;;3906541;30;20246;-93
2021/01/28 20:18:27;;;;;;;31.40;5.03;;;10.80;99.90;;;;;;3892993;30;20216;-94
2021/01/28 20:20:57;;;;;;;32.08;5.22;;;10.60;99.90;;;;;;3906616;30;20195;-94
2021/01/28 20:23:44;;;;;;;31.25;5.30;;;10.60;99.90;;;;;;3889590;30;20670;-95
2021/01/28 20:30:58;;;;;;;31.35;5.82;;;10.70;99.90;;;;;;3934929;30;20354;-94
2021/01/28 20:33:28;;;;;;;35.15;6.07;;;10.80;99.90;;;;;;3919701;30;20231;-93
2021/01/28 20:35:41;;;;;;;35.67;6.10;;;10.80;99.90;;;;;;3933609;30;20275;-94
2021/01/28 20:38:02;;;;;;;32.38;5.72;;;10.80;99.90;;;;;;3920200;30;20225;-95
2021/01/28 20:40:14;;;;;;;36.42;6.72;;;11.00;99.90;;;;;;3919706;30;20183;-94
2021/01/28 20:42:34;;;;;;;;;;;;;;;;;;;;;
2021/01/28 20:44:38;;;;;;;34.55;6.13;;;10.90;99.90;;;;;;3934228;30;20198;-93
2021/01/28 20:46:54;;;;;;;40.47;6.93;;;10.70;99.90;;;;;;3934533;30;20210;-95
2021/01/28 20:49:48;;;;;;;33.58;6.78;;;10.50;99.90;;;;;;3934126;30;20252;-93
2021/01/28 20:52:20;;;;;;;38.67;6.90;;;10.50;99.90;;;;;;3920064;30;20219;-94
2021/01/28 20:54:55;;;;;;;34.53;7.68;;;10.70;99.90;;;;;;3934466;30;20589;-94
2021/01/28 20:57:18;;;;;;;33.83;7.13;;;10.70;99.90;;;;;;3903981;30;20221;-94
2021/01/28 21:00:01;;;;;;;25.50;6.30;;;10.60;99.90;;;;;;3933677;30;20263;-94
2021/01/28 21:02:04;;;;;;;26.95;6.75;;;10.60;99.90;;;;;;3919398;30;20323;-95
2021/01/28 21:06:41;;;;;;;22.55;7.07;;;10.40;99.90;;;;;;3996876;24;20751;-94
2021/01/28 21:09:18;;;;;;;32.30;7.53;;;10.40;99.90;;;;;;3920009;30;20687;-94
2021/01/28 21:15:10;;;;;;;26.38;7.70;;;10.60;99.90;;;;;;3933599;30;20722;-94
2021/01/28 21:17:17;;;;;;;21.60;5.82;;;10.50;99.90;;;;;;3933762;30;20209;-93
2021/01/28 21:19:21;;;;;;;28.90;7.70;;;10.40;99.90;;;;;;3918966;30;20183;-93
2021/01/28 21:21:41;;;;;;;25.88;7.72;;;10.50;99.90;;;;;;3934164;30;20277;-94
2021/01/28 21:23:55;;;;;;;23.83;7.23;;;10.70;99.90;;;;;;3933645;30;20214;-95
2021/01/28 21:26:06;;;;;;;19.85;7.03;;;10.80;99.90;;;;;;3919605;30;20179;-95
2021/01/28 21:31:17;;;;;;;20.02;6.90;;;10.70;99.90;;;;;;3914723;30;20194;-94
2021/01/28 21:34:13;;;;;;;;;;;;;;;;;;;;;
2021/01/28 21:36:55;;;;;;;15.50;7.20;;;10.40;99.90;;;;;;3949956;30;20207;-94
2021/01/28 21:39:24;;;;;;;24.03;7.57;;;10.40;99.90;;;;;;3919326;30;20191;-94
2021/01/28 21:46:58;;;;;;;20.50;7.03;;;10.30;99.90;;;;;;4413225;24;20641;-94
2021/01/28 21:49:37;;;;;;;24.63;7.97;;;10.30;99.90;;;;;;3933843;30;20230;-95
2021/01/28 21:52:18;;;;;;;27.50;8.17;;;10.40;99.90;;;;;;3951155;30;20227;-94
2021/01/28 21:54:20;;;;;;;31.63;9.27;;;10.50;99.90;;;;;;3933514;30;20206;-94
2021/01/28 21:56:39;;;;;;;26.33;8.87;;;10.60;99.90;;;;;;3919650;30;20282;-92
2021/01/28 22:27:55;;;;;;;;;;;;;;;;;;;;;
2021/01/28 22:31:03;;;;;;;;;;;;;;;;;;;;;
2021/01/28 23:05:29;;;;;;;23.00;3.80;;;10.30;99.90;;;;;;3935321;30;20706;-95
2021/01/28 23:07:30;;;;;;;23.80;4.47;;;10.20;99.90;;;;;;3923006;30;20664;-94
2021/01/28 23:09:54;;;;;;;18.07;3.17;;;10.20;99.90;;;;;;3923146;30;20196;-94
2021/01/28 23:11:58;;;;;;;22.93;4.00;;;10.30;99.90;;;;;;3918734;30;20226;-93
2021/01/28 23:14:02;;;;;;;17.55;3.30;;;10.20;99.90;;;;;;3923323;30;20190;-93
2021/01/28 23:16:23;;;;;;;19.42;2.47;;;10.40;99.90;;;;;;3923176;30;20256;-95
2021/01/28 23:18:30;;;;;;;12.97;2.50;;;10.50;99.90;;;;;;3923659;30;20626;-94
2021/01/28 23:20:32;;;;;;;11.33;2.53;;;10.30;99.90;;;;;;3922887;30;20663;-93
2021/01/28 23:22:38;;;;;;;14.47;2.70;;;10.40;99.90;;;;;;3923321;30;20194;-94
2021/01/28 23:24:48;;;;;;;9.83;2.13;;;10.30;99.90;;;;;;3996358;24;20257;-94
2021/01/28 23:26:51;;;;;;;9.93;1.90;;;10.30;99.90;;;;;;3909115;30;20191;-93
2021/01/28 23:28:55;;;;;;;12.25;2.03;;;10.30;99.90;;;;;;3909085;30;20199;-95
2021/01/28 23:30:59;;;;;;;7.00;1.80;;;10.20;99.90;;;;;;3923869;30;20196;-95
2021/01/28 23:33:04;;;;;;;8.77;2.20;;;10.20;99.90;;;;;;3922526;30;20223;-94
2021/01/28 23:35:21;;;;;;;7.00;2.30;;;10.20;99.90;;;;;;3922223;30;20281;-94
2021/01/28 23:37:22;;;;;;;11.83;3.17;;;10.30;99.90;;;;;;3936720;30;20183;-93
2021/01/28 23:39:23;;;;;;;12.03;3.77;;;10.30;99.90;;;;;;3908189;30;20201;-93
2021/01/28 23:41:26;;;;;;;16.30;3.83;;;10.40;99.90;;;;;;3922852;30;20186;-94
2021/01/28 23:43:36;;;;;;;12.67;3.57;;;10.50;99.90;;;;;;3921901;30;20667;-93
2021/01/28 23:45:43;;;;;;;18.53;4.03;;;10.40;99.90;;;;;;3936938;30;20291;-93
2021/01/28 23:47:44;;;;;;;15.97;3.90;;;10.40;99.90;;;;;;3908628;30;20216;-93
2021/01/28 23:49:54;;;;;;;19.93;4.20;;;10.30;99.90;;;;;;3908257;30;20700;-94
2021/01/28 23:52:06;;;;;;;15.03;4.20;;;10.50;99.90;;;;;;3935895;30;20222;-93
2021/01/28 23:54:07;;;;;;;17.60;4.60;;;10.50;99.90;;;;;;3908314;30;20257;-94
